createdAt,value
2017-01-16T00:01:01.854Z,1010.6
2017-01-16T00:02:11.640Z,1010.65
2017-01-16T00:03:21.813Z,1010.64
2017-01-16T00:04:31.538Z,1010.61
2017-01-16T00:05:41.271Z,1010.59
2017-01-16T00:06:51.004Z,1010.62
2017-01-16T00:08:01.221Z,1010.59
2017-01-16T00:09:10.510Z,1010.62
2017-01-16T00:10:21.123Z,1010.62
2017-01-16T00:11:31.293Z,1010.58
2017-01-16T00:12:41.026Z,1010.58
2017-01-16T00:13:52.135Z,1010.57
2017-01-16T00:15:01.429Z,1010.57
2017-01-16T00:16:11.158Z,1010.56
2017-01-16T00:17:20.442Z,1010.57
2017-01-16T00:18:30.167Z,1010.59
2017-01-16T00:19:40.397Z,1010.56
2017-01-16T00:20:50.126Z,1010.57
2017-01-16T00:21:59.851Z,1010.58
2017-01-16T00:23:09.580Z,1010.54
2017-01-16T00:24:19.305Z,1010.59
2017-01-16T00:25:29.082Z,1010.6
2017-01-16T00:26:38.811Z,1010.57
2017-01-16T00:27:48.980Z,1010.61
2017-01-16T00:28:58.701Z,1010.61
2017-01-16T00:30:07.999Z,1010.62
2017-01-16T00:31:17.804Z,1010.61
2017-01-16T00:32:27.545Z,1010.6
2017-01-16T00:33:37.270Z,1010.63
2017-01-16T00:34:47.002Z,1010.64
2017-01-16T00:35:57.176Z,1010.62
2017-01-16T00:37:06.950Z,1010.64
2017-01-16T00:38:17.127Z,1010.66
2017-01-16T00:39:26.864Z,1010.61
2017-01-16T00:40:36.589Z,1010.61
2017-01-16T00:41:46.322Z,1010.68
2017-01-16T00:42:56.111Z,1010.66
2017-01-16T00:44:05.844Z,1010.71
2017-01-16T00:45:16.018Z,1010.68
2017-01-16T00:46:26.187Z,1010.74
2017-01-16T00:47:36.360Z,1010.75
2017-01-16T00:48:46.137Z,1010.78
2017-01-16T00:49:56.306Z,1010.79
2017-01-16T00:51:06.480Z,1010.76
2017-01-16T00:52:16.209Z,1010.77
2017-01-16T00:53:26.377Z,1010.76
2017-01-16T00:54:36.598Z,1010.8
2017-01-16T00:55:46.327Z,1010.77
2017-01-16T00:56:56.061Z,1010.81
2017-01-16T00:58:05.786Z,1010.84
2017-01-16T00:59:15.511Z,1010.83
2017-01-16T01:00:25.288Z,1010.87
2017-01-16T01:01:35.017Z,1010.84
2017-01-16T01:02:45.194Z,1010.86
2017-01-16T01:03:55.811Z,1010.86
2017-01-16T01:05:05.988Z,1010.87
2017-01-16T01:06:15.770Z,1010.85
2017-01-16T01:07:25.491Z,1010.84
2017-01-16T01:08:35.656Z,1010.84
2017-01-16T01:09:46.277Z,1010.85
2017-01-16T01:10:56.010Z,1010.85
2017-01-16T01:12:06.672Z,1010.89
2017-01-16T01:13:17.293Z,1010.88
2017-01-16T01:14:26.586Z,1010.86
2017-01-16T01:15:37.203Z,1010.89
2017-01-16T01:16:46.953Z,1010.83
2017-01-16T01:17:57.177Z,1010.87
2017-01-16T01:19:07.354Z,1010.87
2017-01-16T01:20:17.523Z,1010.88
2017-01-16T01:21:27.273Z,1010.85
2017-01-16T01:22:36.998Z,1010.87
2017-01-16T01:23:47.759Z,1010.87
2017-01-16T01:24:57.484Z,1010.9
2017-01-16T01:26:07.217Z,1010.88
2017-01-16T01:27:16.951Z,1010.87
2017-01-16T01:28:27.123Z,1010.91
2017-01-16T01:29:36.898Z,1010.93
2017-01-16T01:30:47.070Z,1010.93
2017-01-16T01:31:56.823Z,1010.96
2017-01-16T01:33:06.992Z,1010.99
2017-01-16T01:34:16.721Z,1011.01
2017-01-16T01:35:26.502Z,1010.99
2017-01-16T01:36:35.788Z,1011.04
2017-01-16T01:37:46.425Z,1011
2017-01-16T01:38:57.042Z,1011.04
2017-01-16T01:40:07.655Z,1011.03
2017-01-16T01:41:17.436Z,1011.07
2017-01-16T01:42:27.609Z,1011.05
2017-01-16T01:43:37.785Z,1011.03
2017-01-16T01:44:47.955Z,1011.07
2017-01-16T01:45:57.682Z,1011.06
2017-01-16T01:47:07.462Z,1011.09
2017-01-16T01:48:17.627Z,1011.11
2017-01-16T01:49:27.800Z,1011.12
2017-01-16T01:50:37.981Z,1011.11
2017-01-16T01:51:48.594Z,1011.12
2017-01-16T01:52:58.839Z,1011.17
2017-01-16T01:54:08.565Z,1011.15
2017-01-16T01:55:18.298Z,1011.14
2017-01-16T01:56:28.023Z,1011.13
2017-01-16T01:57:37.752Z,1011.14
2017-01-16T01:58:48.414Z,1011.17
2017-01-16T01:59:58.147Z,1011.14
2017-01-16T02:01:07.872Z,1011.13
2017-01-16T02:02:17.157Z,1011.15
2017-01-16T02:03:27.326Z,1011.17
2017-01-16T02:04:37.103Z,1011.18
2017-01-16T02:05:46.837Z,1011.22
2017-01-16T02:06:57.450Z,1011.18
2017-01-16T02:08:07.175Z,1011.24
2017-01-16T02:09:17.348Z,1011.24
2017-01-16T02:10:27.125Z,1011.24
2017-01-16T02:11:37.734Z,1011.31
2017-01-16T02:12:47.459Z,1011.27
2017-01-16T02:13:57.181Z,1011.28
2017-01-16T02:15:06.478Z,1011.3
2017-01-16T02:16:16.251Z,1011.29
2017-01-16T02:17:25.980Z,1011.3
2017-01-16T02:18:35.709Z,1011.27
2017-01-16T02:19:45.450Z,1011.27
2017-01-16T02:20:55.619Z,1011.3
2017-01-16T02:22:05.496Z,1011.31
2017-01-16T02:23:15.665Z,1011.29
2017-01-16T02:24:26.279Z,1011.32
2017-01-16T02:25:36.448Z,1011.34
2017-01-16T02:26:46.169Z,1011.36
2017-01-16T02:27:55.946Z,1011.33
2017-01-16T02:29:05.675Z,1011.35
2017-01-16T02:30:15.404Z,1011.36
2017-01-16T02:31:25.149Z,1011.39
2017-01-16T02:32:35.322Z,1011.37
2017-01-16T02:33:45.548Z,1011.36
2017-01-16T02:34:55.717Z,1011.35
2017-01-16T02:36:05.446Z,1011.3
2017-01-16T02:37:15.167Z,1011.36
2017-01-16T02:38:24.892Z,1011.36
2017-01-16T02:39:35.113Z,1011.33
2017-01-16T02:40:45.278Z,1011.33
2017-01-16T02:41:55.012Z,1011.31
2017-01-16T02:43:04.729Z,1011.31
2017-01-16T02:44:14.450Z,1011.32
2017-01-16T02:45:24.222Z,1011.28
2017-01-16T02:46:33.945Z,1011.3
2017-01-16T02:47:43.674Z,1011.33
2017-01-16T02:48:53.391Z,1011.34
2017-01-16T02:50:03.980Z,1011.35
2017-01-16T02:51:13.777Z,1011.34
2017-01-16T02:52:24.614Z,1011.32
2017-01-16T02:53:35.620Z,1011.3
2017-01-16T02:54:45.337Z,1011.32
2017-01-16T02:55:55.490Z,1011.35
2017-01-16T02:57:05.291Z,1011.35
2017-01-16T02:58:15.884Z,1011.33
2017-01-16T02:59:25.161Z,1011.37
2017-01-16T03:00:34.882Z,1011.33
2017-01-16T03:01:44.160Z,1011.35
2017-01-16T03:02:54.077Z,1011.35
2017-01-16T03:04:05.106Z,1011.34
2017-01-16T03:05:14.827Z,1011.3
2017-01-16T03:06:24.981Z,1011.34
2017-01-16T03:07:35.142Z,1011.35
2017-01-16T03:08:44.471Z,1011.32
2017-01-16T03:09:54.624Z,1011.34
2017-01-16T03:11:04.349Z,1011.34
2017-01-16T03:12:14.067Z,1011.34
2017-01-16T03:13:24.219Z,1011.38
2017-01-16T03:14:34.865Z,1011.36
2017-01-16T03:15:44.586Z,1011.39
2017-01-16T03:16:54.739Z,1011.34
2017-01-16T03:18:04.892Z,1011.38
2017-01-16T03:19:15.053Z,1011.34
2017-01-16T03:20:24.819Z,1011.34
2017-01-16T03:21:34.104Z,1011.34
2017-01-16T03:22:43.825Z,1011.37
2017-01-16T03:23:53.538Z,1011.38
2017-01-16T03:25:03.255Z,1011.38
2017-01-16T03:26:12.597Z,1011.37
2017-01-16T03:27:22.314Z,1011.38
2017-01-16T03:28:32.467Z,1011.38
2017-01-16T03:29:42.628Z,1011.39
2017-01-16T03:30:52.785Z,1011.37
2017-01-16T03:32:02.551Z,1011.39
2017-01-16T03:33:12.296Z,1011.41
2017-01-16T03:34:22.449Z,1011.41
2017-01-16T03:35:32.170Z,1011.4
2017-01-16T03:36:41.896Z,1011.36
2017-01-16T03:37:52.537Z,1011.36
2017-01-16T03:39:01.818Z,1011.39
2017-01-16T03:40:11.971Z,1011.34
2017-01-16T03:41:22.124Z,1011.37
2017-01-16T03:42:32.285Z,1011.33
2017-01-16T03:43:42.922Z,1011.29
2017-01-16T03:44:53.516Z,1011.32
2017-01-16T03:46:02.797Z,1011.38
2017-01-16T03:47:12.958Z,1011.35
2017-01-16T03:48:22.679Z,1011.37
2017-01-16T03:49:32.448Z,1011.37
2017-01-16T03:50:42.166Z,1011.39
2017-01-16T03:51:51.880Z,1011.39
2017-01-16T03:53:02.468Z,1011.42
2017-01-16T03:54:12.185Z,1011.37
2017-01-16T03:55:22.403Z,1011.39
2017-01-16T03:56:32.119Z,1011.42
2017-01-16T03:57:42.281Z,1011.43
2017-01-16T03:58:52.438Z,1011.41
2017-01-16T04:00:03.031Z,1011.42
2017-01-16T04:01:13.677Z,1011.45
2017-01-16T04:02:24.272Z,1011.44
2017-01-16T04:03:33.987Z,1011.45
2017-01-16T04:04:43.700Z,1011.42
2017-01-16T04:05:53.417Z,1011.4
2017-01-16T04:07:03.626Z,1011.46
2017-01-16T04:08:13.348Z,1011.45
2017-01-16T04:09:23.065Z,1011.45
2017-01-16T04:10:33.214Z,1011.45
2017-01-16T04:11:43.375Z,1011.43
2017-01-16T04:12:54.024Z,1011.46
2017-01-16T04:14:03.745Z,1011.5
2017-01-16T04:15:13.023Z,1011.5
2017-01-16T04:16:22.304Z,1011.54
2017-01-16T04:17:32.461Z,1011.56
2017-01-16T04:18:42.670Z,1011.6
2017-01-16T04:19:52.827Z,1011.59
2017-01-16T04:21:02.105Z,1011.58
2017-01-16T04:22:13.134Z,1011.58
2017-01-16T04:23:22.423Z,1011.6
2017-01-16T04:24:31.904Z,1011.63
2017-01-16T04:25:41.621Z,1011.6
2017-01-16T04:26:51.343Z,1011.63
2017-01-16T04:28:00.620Z,1011.62
2017-01-16T04:29:10.777Z,1011.63
2017-01-16T04:30:20.106Z,1011.63
2017-01-16T04:31:29.391Z,1011.62
2017-01-16T04:32:39.108Z,1011.62
2017-01-16T04:33:48.394Z,1011.65
2017-01-16T04:34:58.111Z,1011.69
2017-01-16T04:36:08.789Z,1011.7
2017-01-16T04:37:19.389Z,1011.73
2017-01-16T04:38:29.102Z,1011.71
2017-01-16T04:39:39.259Z,1011.74
2017-01-16T04:40:48.977Z,1011.75
2017-01-16T04:41:59.622Z,1011.73
2017-01-16T04:43:08.911Z,1011.75
2017-01-16T04:44:18.628Z,1011.82
2017-01-16T04:45:27.906Z,1011.84
2017-01-16T04:46:37.623Z,1011.86
2017-01-16T04:47:47.836Z,1011.86
2017-01-16T04:48:57.555Z,1011.85
2017-01-16T04:50:07.726Z,1011.85
2017-01-16T04:51:18.319Z,1011.84
2017-01-16T04:52:28.472Z,1011.86
2017-01-16T04:53:38.678Z,1011.89
2017-01-16T04:54:48.399Z,1011.87
2017-01-16T04:55:58.120Z,1011.91
2017-01-16T04:57:08.717Z,1011.92
2017-01-16T04:58:18.878Z,1011.9
2017-01-16T04:59:29.087Z,1011.88
2017-01-16T05:00:38.805Z,1011.91
2017-01-16T05:01:48.953Z,1011.88
2017-01-16T05:02:58.667Z,1011.9
2017-01-16T05:04:08.384Z,1011.88
2017-01-16T05:05:18.153Z,1011.88
2017-01-16T05:06:28.742Z,1011.9
2017-01-16T05:07:38.900Z,1011.93
2017-01-16T05:08:48.613Z,1011.94
2017-01-16T05:09:57.890Z,1011.94
2017-01-16T05:11:07.659Z,1011.97
2017-01-16T05:12:16.944Z,1012
2017-01-16T05:13:26.666Z,1012.03
2017-01-16T05:14:36.383Z,1012.05
2017-01-16T05:15:45.668Z,1012.02
2017-01-16T05:16:55.873Z,1012.03
2017-01-16T05:18:05.154Z,1012.06
2017-01-16T05:19:15.315Z,1012.02
2017-01-16T05:20:24.597Z,1012.02
2017-01-16T05:21:34.313Z,1012.06
2017-01-16T05:22:44.523Z,1012.07
2017-01-16T05:23:54.676Z,1012.13
2017-01-16T05:25:05.270Z,1012.11
2017-01-16T05:26:14.583Z,1012.15
2017-01-16T05:27:24.296Z,1012.18
2017-01-16T05:28:34.644Z,1012.22
2017-01-16T05:29:44.802Z,1012.23
2017-01-16T05:30:55.419Z,1012.27
2017-01-16T05:32:05.141Z,1012.3
2017-01-16T05:33:14.858Z,1012.31
2017-01-16T05:34:25.063Z,1012.35
2017-01-16T05:35:34.336Z,1012.4
2017-01-16T05:36:44.493Z,1012.33
2017-01-16T05:37:54.215Z,1012.37
2017-01-16T05:39:03.499Z,1012.36
2017-01-16T05:40:13.705Z,1012.38
2017-01-16T05:41:22.990Z,1012.33
2017-01-16T05:42:32.271Z,1012.34
2017-01-16T05:43:42.424Z,1012.35
2017-01-16T05:44:51.705Z,1012.38
2017-01-16T05:46:01.474Z,1012.41
2017-01-16T05:47:10.760Z,1012.46
2017-01-16T05:48:20.477Z,1012.42
2017-01-16T05:49:30.630Z,1012.49
2017-01-16T05:50:39.911Z,1012.48
2017-01-16T05:51:50.146Z,1012.52
2017-01-16T05:52:59.422Z,1012.58
2017-01-16T05:54:08.699Z,1012.56
2017-01-16T05:55:18.415Z,1012.61
2017-01-16T05:56:28.573Z,1012.62
2017-01-16T05:57:37.898Z,1012.61
2017-01-16T05:58:47.620Z,1012.67
2017-01-16T05:59:57.345Z,1012.72
2017-01-16T06:01:07.493Z,1012.71
2017-01-16T06:02:17.247Z,1012.69
2017-01-16T06:03:27.008Z,1012.72
2017-01-16T06:04:37.153Z,1012.72
2017-01-16T06:05:47.307Z,1012.77
2017-01-16T06:06:57.028Z,1012.75
2017-01-16T06:08:06.309Z,1012.75
2017-01-16T06:09:16.514Z,1012.73
2017-01-16T06:10:26.231Z,1012.75
2017-01-16T06:11:35.944Z,1012.75
2017-01-16T06:12:46.101Z,1012.78
2017-01-16T06:13:56.267Z,1012.81
2017-01-16T06:15:06.028Z,1012.83
2017-01-16T06:16:15.305Z,1012.85
2017-01-16T06:17:25.462Z,1012.82
2017-01-16T06:18:35.179Z,1012.86
2017-01-16T06:19:45.336Z,1012.85
2017-01-16T06:20:55.982Z,1012.83
2017-01-16T06:22:05.699Z,1012.84
2017-01-16T06:23:15.416Z,1012.83
2017-01-16T06:24:24.697Z,1012.86
2017-01-16T06:25:34.414Z,1012.9
2017-01-16T06:26:44.179Z,1012.9
2017-01-16T06:27:53.897Z,1012.97
2017-01-16T06:29:03.610Z,1012.94
2017-01-16T06:30:13.331Z,1012.99
2017-01-16T06:31:22.648Z,1012.97
2017-01-16T06:32:32.853Z,1013
2017-01-16T06:33:43.010Z,1013.05
2017-01-16T06:34:52.728Z,1013.06
2017-01-16T06:36:02.009Z,1013.08
2017-01-16T06:37:12.634Z,1013.11
2017-01-16T06:38:22.399Z,1013.12
2017-01-16T06:39:32.116Z,1013.15
2017-01-16T06:40:41.857Z,1013.2
2017-01-16T06:41:51.571Z,1013.15
2017-01-16T06:43:01.292Z,1013.15
2017-01-16T06:44:11.061Z,1013.14
2017-01-16T06:45:20.786Z,1013.24
2017-01-16T06:46:30.507Z,1013.22
2017-01-16T06:47:40.224Z,1013.24
2017-01-16T06:48:50.374Z,1013.26
2017-01-16T06:50:00.135Z,1013.29
2017-01-16T06:51:10.736Z,1013.27
2017-01-16T06:52:20.889Z,1013.28
2017-01-16T06:53:30.602Z,1013.3
2017-01-16T06:54:40.319Z,1013.29
2017-01-16T06:55:50.081Z,1013.36
2017-01-16T06:56:59.802Z,1013.34
2017-01-16T06:58:10.399Z,1013.37
2017-01-16T06:59:19.676Z,1013.33
2017-01-16T07:00:29.389Z,1013.31
2017-01-16T07:01:38.718Z,1013.38
2017-01-16T07:02:48.435Z,1013.37
2017-01-16T07:03:58.584Z,1013.38
2017-01-16T07:05:08.738Z,1013.4
2017-01-16T07:06:18.454Z,1013.43
2017-01-16T07:07:28.652Z,1013.42
2017-01-16T07:08:37.925Z,1013.44
2017-01-16T07:09:47.642Z,1013.43
2017-01-16T07:10:57.355Z,1013.45
2017-01-16T07:12:07.544Z,1013.45
2017-01-16T07:13:17.313Z,1013.5
2017-01-16T07:14:27.466Z,1013.49
2017-01-16T07:15:37.619Z,1013.54
2017-01-16T07:16:46.920Z,1013.54
2017-01-16T07:17:56.633Z,1013.55
2017-01-16T07:19:06.834Z,1013.56
2017-01-16T07:20:16.555Z,1013.56
2017-01-16T07:21:26.708Z,1013.55
2017-01-16T07:22:37.297Z,1013.57
2017-01-16T07:23:47.454Z,1013.58
2017-01-16T07:24:57.219Z,1013.59
2017-01-16T07:26:07.369Z,1013.63
2017-01-16T07:27:17.522Z,1013.62
2017-01-16T07:28:27.683Z,1013.62
2017-01-16T07:29:37.840Z,1013.63
2017-01-16T07:30:47.613Z,1013.64
2017-01-16T07:31:57.330Z,1013.66
2017-01-16T07:33:07.483Z,1013.67
2017-01-16T07:34:17.640Z,1013.68
2017-01-16T07:35:27.353Z,1013.71
2017-01-16T07:36:37.586Z,1013.73
2017-01-16T07:37:47.744Z,1013.71
2017-01-16T07:38:58.337Z,1013.79
2017-01-16T07:40:07.614Z,1013.79
2017-01-16T07:41:16.898Z,1013.83
2017-01-16T07:42:27.104Z,1013.82
2017-01-16T07:43:37.257Z,1013.82
2017-01-16T07:44:46.978Z,1013.88
2017-01-16T07:45:57.132Z,1013.86
2017-01-16T07:47:07.286Z,1013.88
2017-01-16T07:48:17.498Z,1013.89
2017-01-16T07:49:27.219Z,1013.9
2017-01-16T07:50:36.960Z,1013.88
2017-01-16T07:51:47.110Z,1013.89
2017-01-16T07:52:56.822Z,1013.89
2017-01-16T07:54:07.472Z,1013.89
2017-01-16T07:55:17.208Z,1013.88
2017-01-16T07:56:26.486Z,1013.86
2017-01-16T07:57:36.643Z,1013.91
2017-01-16T07:58:46.360Z,1013.95
2017-01-16T07:59:55.789Z,1013.95
2017-01-16T08:01:06.382Z,1013.99
2017-01-16T08:02:16.104Z,1014.02
2017-01-16T08:03:25.825Z,1014.02
2017-01-16T08:04:35.110Z,1014
2017-01-16T08:05:45.755Z,1013.98
2017-01-16T08:06:55.471Z,1014.01
2017-01-16T08:08:05.633Z,1014
2017-01-16T08:09:14.910Z,1014.02
2017-01-16T08:10:25.063Z,1014.02
2017-01-16T08:11:35.264Z,1014.03
2017-01-16T08:12:45.425Z,1014.03
2017-01-16T08:13:55.582Z,1014.05
2017-01-16T08:15:04.871Z,1014.08
2017-01-16T08:16:14.588Z,1014.05
2017-01-16T08:17:23.917Z,1014.06
2017-01-16T08:18:34.074Z,1014.08
2017-01-16T08:19:43.791Z,1014.07
2017-01-16T08:20:53.505Z,1014.08
2017-01-16T08:22:03.222Z,1014.09
2017-01-16T08:23:12.550Z,1014.11
2017-01-16T08:24:22.268Z,1014.13
2017-01-16T08:25:32.425Z,1014.15
2017-01-16T08:26:42.142Z,1014.13
2017-01-16T08:27:52.731Z,1014.13
2017-01-16T08:29:02.964Z,1014.16
2017-01-16T08:30:13.121Z,1014.18
2017-01-16T08:31:23.287Z,1014.18
2017-01-16T08:32:32.566Z,1014.17
2017-01-16T08:33:43.157Z,1014.17
2017-01-16T08:34:53.078Z,1014.16
2017-01-16T08:36:03.683Z,1014.17
2017-01-16T08:37:13.400Z,1014.24
2017-01-16T08:38:23.553Z,1014.25
2017-01-16T08:39:33.719Z,1014.24
2017-01-16T08:40:43.928Z,1014.26
2017-01-16T08:41:53.213Z,1014.28
2017-01-16T08:43:02.934Z,1014.3
2017-01-16T08:44:13.547Z,1014.31
2017-01-16T08:45:23.273Z,1014.35
2017-01-16T08:46:32.610Z,1014.34
2017-01-16T08:47:42.335Z,1014.39
2017-01-16T08:48:52.928Z,1014.39
2017-01-16T08:50:03.525Z,1014.37
2017-01-16T08:51:14.110Z,1014.42
2017-01-16T08:52:23.435Z,1014.44
2017-01-16T08:53:33.157Z,1014.43
2017-01-16T08:54:42.870Z,1014.44
2017-01-16T08:55:53.019Z,1014.45
2017-01-16T08:57:03.168Z,1014.46
2017-01-16T08:58:13.377Z,1014.42
2017-01-16T08:59:23.974Z,1014.43
2017-01-16T09:00:33.688Z,1014.41
2017-01-16T09:01:43.841Z,1014.44
2017-01-16T09:02:53.998Z,1014.46
2017-01-16T09:04:04.207Z,1014.43
2017-01-16T09:05:13.921Z,1014.4
2017-01-16T09:06:24.082Z,1014.44
2017-01-16T09:07:33.799Z,1014.41
2017-01-16T09:08:44.396Z,1014.39
2017-01-16T09:09:54.601Z,1014.39
2017-01-16T09:11:04.755Z,1014.41
2017-01-16T09:12:14.032Z,1014.41
2017-01-16T09:13:23.750Z,1014.43
2017-01-16T09:14:33.467Z,1014.39
2017-01-16T09:15:43.672Z,1014.41
2017-01-16T09:16:54.269Z,1014.46
2017-01-16T09:18:03.986Z,1014.45
2017-01-16T09:19:14.147Z,1014.5
2017-01-16T09:20:24.741Z,1014.49
2017-01-16T09:21:34.606Z,1014.51
2017-01-16T09:22:44.323Z,1014.51
2017-01-16T09:23:53.605Z,1014.52
2017-01-16T09:25:02.890Z,1014.52
2017-01-16T09:26:13.043Z,1014.49
2017-01-16T09:27:22.824Z,1014.52
2017-01-16T09:28:32.990Z,1014.53
2017-01-16T09:29:43.147Z,1014.49
2017-01-16T09:30:52.868Z,1014.54
2017-01-16T09:32:03.025Z,1014.57
2017-01-16T09:33:12.895Z,1014.6
2017-01-16T09:34:23.488Z,1014.57
2017-01-16T09:35:33.645Z,1014.6
2017-01-16T09:36:43.794Z,1014.59
2017-01-16T09:37:53.512Z,1014.58
2017-01-16T09:39:03.281Z,1014.58
2017-01-16T09:40:12.566Z,1014.61
2017-01-16T09:41:22.720Z,1014.62
2017-01-16T09:42:32.441Z,1014.61
2017-01-16T09:43:42.594Z,1014.61
2017-01-16T09:44:52.367Z,1014.62
2017-01-16T09:46:01.653Z,1014.62
2017-01-16T09:47:11.374Z,1014.62
2017-01-16T09:48:21.523Z,1014.6
2017-01-16T09:49:31.673Z,1014.63
2017-01-16T09:50:41.442Z,1014.63
2017-01-16T09:51:51.591Z,1014.64
2017-01-16T09:53:02.189Z,1014.62
2017-01-16T09:54:11.905Z,1014.64
2017-01-16T09:55:21.619Z,1014.66
2017-01-16T09:56:31.440Z,1014.64
2017-01-16T09:57:40.733Z,1014.65
2017-01-16T09:58:50.891Z,1014.66
2017-01-16T10:00:00.608Z,1014.68
2017-01-16T10:01:10.325Z,1014.73
2017-01-16T10:02:20.966Z,1014.73
2017-01-16T10:03:30.248Z,1014.7
2017-01-16T10:04:39.969Z,1014.77
2017-01-16T10:05:49.686Z,1014.76
2017-01-16T10:06:59.395Z,1014.79
2017-01-16T10:08:08.731Z,1014.76
2017-01-16T10:09:18.886Z,1014.78
2017-01-16T10:10:28.607Z,1014.8
2017-01-16T10:11:38.766Z,1014.82
2017-01-16T10:12:48.041Z,1014.81
2017-01-16T10:13:58.299Z,1014.86
2017-01-16T10:15:08.452Z,1014.84
2017-01-16T10:16:18.173Z,1014.85
2017-01-16T10:17:28.766Z,1014.87
2017-01-16T10:18:39.356Z,1014.89
2017-01-16T10:19:48.689Z,1014.89
2017-01-16T10:20:58.842Z,1014.89
2017-01-16T10:22:08.560Z,1014.88
2017-01-16T10:23:18.713Z,1014.87
2017-01-16T10:24:28.030Z,1014.88
2017-01-16T10:25:38.235Z,1014.9
2017-01-16T10:26:47.961Z,1014.91
2017-01-16T10:27:57.678Z,1014.95
2017-01-16T10:29:06.991Z,1014.95
2017-01-16T10:30:16.268Z,1014.94
2017-01-16T10:31:26.913Z,1014.92
2017-01-16T10:32:36.630Z,1014.92
2017-01-16T10:33:47.228Z,1014.9
2017-01-16T10:34:56.942Z,1014.91
2017-01-16T10:36:06.222Z,1014.91
2017-01-16T10:37:16.867Z,1014.92
2017-01-16T10:38:27.021Z,1014.99
2017-01-16T10:39:37.178Z,1014.97
2017-01-16T10:40:47.339Z,1014.97
2017-01-16T10:41:57.057Z,1014.96
2017-01-16T10:43:07.254Z,1014.96
2017-01-16T10:44:17.407Z,1014.96
2017-01-16T10:45:27.564Z,1014.99
2017-01-16T10:46:37.285Z,1015.01
2017-01-16T10:47:47.439Z,1015.02
2017-01-16T10:48:56.768Z,1015
2017-01-16T10:50:06.921Z,1015
2017-01-16T10:51:16.646Z,1015.03
2017-01-16T10:52:26.363Z,1015.03
2017-01-16T10:53:36.085Z,1015.02
2017-01-16T10:54:45.410Z,1015.08
2017-01-16T10:55:55.999Z,1015.03
2017-01-16T10:57:05.736Z,1015.05
2017-01-16T10:58:15.894Z,1015.05
2017-01-16T10:59:25.167Z,1015.08
2017-01-16T11:00:34.936Z,1015.05
2017-01-16T11:01:44.649Z,1015.06
2017-01-16T11:02:55.246Z,1015.03
2017-01-16T11:04:05.843Z,1015.05
2017-01-16T11:05:15.999Z,1015.05
2017-01-16T11:06:25.329Z,1015.08
2017-01-16T11:07:35.042Z,1015.05
2017-01-16T11:08:45.207Z,1015.08
2017-01-16T11:09:54.933Z,1015.11
2017-01-16T11:11:05.086Z,1015.08
2017-01-16T11:12:14.851Z,1015.11
2017-01-16T11:13:25.008Z,1015.15
2017-01-16T11:14:34.729Z,1015.15
2017-01-16T11:15:44.882Z,1015.12
2017-01-16T11:16:54.595Z,1015.15
2017-01-16T11:18:05.252Z,1015.16
2017-01-16T11:19:14.978Z,1015.18
2017-01-16T11:20:24.695Z,1015.16
2017-01-16T11:21:34.412Z,1015.16
2017-01-16T11:22:44.581Z,1015.14
2017-01-16T11:23:54.790Z,1015.16
2017-01-16T11:25:04.072Z,1015.15
2017-01-16T11:26:14.245Z,1015.16
2017-01-16T11:27:23.964Z,1015.12
2017-01-16T11:28:34.127Z,1015.15
2017-01-16T11:29:43.891Z,1015.16
2017-01-16T11:30:53.605Z,1015.19
2017-01-16T11:32:02.902Z,1015.17
2017-01-16T11:33:12.627Z,1015.19
2017-01-16T11:34:22.348Z,1015.2
2017-01-16T11:35:32.561Z,1015.2
2017-01-16T11:36:42.283Z,1015.22
2017-01-16T11:37:52.439Z,1015.18
2017-01-16T11:39:02.157Z,1015.18
2017-01-16T11:40:12.310Z,1015.2
2017-01-16T11:41:22.519Z,1015.2
2017-01-16T11:42:32.244Z,1015.23
2017-01-16T11:43:41.525Z,1015.21
2017-01-16T11:44:51.242Z,1015.17
2017-01-16T11:46:00.523Z,1015.16
2017-01-16T11:47:10.732Z,1015.15
2017-01-16T11:48:20.453Z,1015.19
2017-01-16T11:49:30.610Z,1015.16
2017-01-16T11:50:40.335Z,1015.19
2017-01-16T11:51:50.080Z,1015.18
2017-01-16T11:52:59.849Z,1015.18
2017-01-16T11:54:09.571Z,1015.19
2017-01-16T11:55:19.295Z,1015.19
2017-01-16T11:56:28.580Z,1015.2
2017-01-16T11:57:39.178Z,1015.26
2017-01-16T11:58:48.951Z,1015.26
2017-01-16T11:59:59.107Z,1015.28
2017-01-16T12:01:09.265Z,1015.32
2017-01-16T12:02:18.550Z,1015.3
2017-01-16T12:03:28.275Z,1015.31
2017-01-16T12:04:37.600Z,1015.36
2017-01-16T12:05:47.321Z,1015.37
2017-01-16T12:06:57.922Z,1015.36
2017-01-16T12:08:07.203Z,1015.38
2017-01-16T12:09:16.929Z,1015.4
2017-01-16T12:10:26.258Z,1015.4
2017-01-16T12:11:36.414Z,1015.4
2017-01-16T12:12:47.007Z,1015.4
2017-01-16T12:13:57.163Z,1015.39
2017-01-16T12:15:07.325Z,1015.37
2017-01-16T12:16:17.094Z,1015.42
2017-01-16T12:17:27.251Z,1015.39
2017-01-16T12:18:37.411Z,1015.43
2017-01-16T12:19:47.597Z,1015.4
2017-01-16T12:20:57.314Z,1015.36
2017-01-16T12:22:07.515Z,1015.39
2017-01-16T12:23:18.116Z,1015.33
2017-01-16T12:24:28.273Z,1015.39
2017-01-16T12:25:38.430Z,1015.32
2017-01-16T12:26:48.587Z,1015.32
2017-01-16T12:27:58.356Z,1015.32
2017-01-16T12:29:08.069Z,1015.3
2017-01-16T12:30:18.224Z,1015.31
2017-01-16T12:31:27.943Z,1015.3
2017-01-16T12:32:38.545Z,1015.29
2017-01-16T12:33:47.885Z,1015.33
2017-01-16T12:34:57.167Z,1015.34
2017-01-16T12:36:06.879Z,1015.34
2017-01-16T12:37:17.468Z,1015.37
2017-01-16T12:38:26.781Z,1015.33
2017-01-16T12:39:36.982Z,1015.35
2017-01-16T12:40:47.135Z,1015.38
2017-01-16T12:41:57.296Z,1015.37
2017-01-16T12:43:07.453Z,1015.37
2017-01-16T12:44:17.610Z,1015.34
2017-01-16T12:45:26.939Z,1015.36
2017-01-16T12:46:36.676Z,1015.33
2017-01-16T12:47:45.957Z,1015.33
2017-01-16T12:48:55.674Z,1015.29
2017-01-16T12:50:05.419Z,1015.32
2017-01-16T12:51:14.748Z,1015.31
2017-01-16T12:52:24.029Z,1015.34
2017-01-16T12:53:34.186Z,1015.32
2017-01-16T12:54:43.903Z,1015.3
2017-01-16T12:55:54.061Z,1015.32
2017-01-16T12:57:03.394Z,1015.32
2017-01-16T12:58:13.547Z,1015.33
2017-01-16T12:59:23.704Z,1015.35
2017-01-16T13:00:33.416Z,1015.36
2017-01-16T13:01:44.014Z,1015.41
2017-01-16T13:02:53.783Z,1015.38
2017-01-16T13:04:03.944Z,1015.39
2017-01-16T13:05:14.106Z,1015.43
2017-01-16T13:06:24.699Z,1015.44
2017-01-16T13:07:33.980Z,1015.43
2017-01-16T13:08:44.777Z,1015.46
2017-01-16T13:09:55.363Z,1015.5
2017-01-16T13:11:05.522Z,1015.49
2017-01-16T13:12:15.685Z,1015.49
2017-01-16T13:13:26.283Z,1015.49
2017-01-16T13:14:36.051Z,1015.53
2017-01-16T13:15:46.209Z,1015.54
2017-01-16T13:16:55.519Z,1015.57
2017-01-16T13:18:04.803Z,1015.55
2017-01-16T13:19:14.518Z,1015.55
2017-01-16T13:20:24.746Z,1015.56
2017-01-16T13:21:34.491Z,1015.58
2017-01-16T13:22:44.645Z,1015.55
2017-01-16T13:23:55.234Z,1015.56
2017-01-16T13:25:05.388Z,1015.57
2017-01-16T13:26:15.157Z,1015.62
2017-01-16T13:27:25.314Z,1015.66
2017-01-16T13:28:35.035Z,1015.66
2017-01-16T13:29:45.640Z,1015.73
2017-01-16T13:30:55.798Z,1015.67
2017-01-16T13:32:06.008Z,1015.68
2017-01-16T13:33:15.285Z,1015.72
2017-01-16T13:34:25.010Z,1015.65
2017-01-16T13:35:35.175Z,1015.69
2017-01-16T13:36:45.337Z,1015.64
2017-01-16T13:37:55.546Z,1015.64
2017-01-16T13:39:05.703Z,1015.64
2017-01-16T13:40:14.988Z,1015.62
2017-01-16T13:41:24.706Z,1015.62
2017-01-16T13:42:35.295Z,1015.61
2017-01-16T13:43:45.064Z,1015.63
2017-01-16T13:44:55.662Z,1015.64
2017-01-16T13:46:05.827Z,1015.64
2017-01-16T13:47:16.425Z,1015.6
2017-01-16T13:48:26.141Z,1015.59
2017-01-16T13:49:36.347Z,1015.59
2017-01-16T13:50:46.500Z,1015.59
2017-01-16T13:51:56.220Z,1015.6
2017-01-16T13:53:06.819Z,1015.56
2017-01-16T13:54:16.976Z,1015.59
2017-01-16T13:55:26.753Z,1015.59
2017-01-16T13:56:36.907Z,1015.63
2017-01-16T13:57:47.092Z,1015.63
2017-01-16T13:58:57.254Z,1015.65
2017-01-16T14:00:06.974Z,1015.66
2017-01-16T14:01:16.740Z,1015.66
2017-01-16T14:02:26.901Z,1015.7
2017-01-16T14:03:36.643Z,1015.69
2017-01-16T14:04:45.928Z,1015.71
2017-01-16T14:05:56.085Z,1015.79
2017-01-16T14:07:05.855Z,1015.78
2017-01-16T14:08:15.588Z,1015.8
2017-01-16T14:09:25.305Z,1015.81